sensor_id;sensor_type;location;lat;lon;timestamp;temperature;humidity
1988;DHT22;12775;46.994;15.498;2023-02-01T00:02:18;1.20;91.50
1988;DHT22;12775;46.994;15.498;2023-02-01T00:04:45;1.20;91.20
1988;DHT22;12775;46.994;15.498;2023-02-01T00:07:13;1.20;91.10
1988;DHT22;12775;46.994;15.498;2023-02-01T00:09:40;1.10;91.10
1988;DHT22;12775;46.994;15.498;2023-02-01T00:12:08;0.80;92.30
1988;DHT22;12775;46.994;15.498;2023-02-01T00:14:35;0.80;92.40
1988;DHT22;12775;46.994;15.498;2023-02-01T00:17:02;0.60;92.30
1988;DHT22;12775;46.994;15.498;2023-02-01T00:19:30;0.50;92.90
1988;DHT22;12775;46.994;15.498;2023-02-01T00:21:57;0.50;92.60
1988;DHT22;12775;46.994;15.498;2023-02-01T00:24:24;0.60;92.50
1988;DHT22;12775;46.994;15.498;2023-02-01T00:26:52;0.60;92.30
1988;DHT22;12775;46.994;15.498;2023-02-01T00:29:19;0.70;91.80
1988;DHT22;12775;46.994;15.498;2023-02-01T00:31:46;0.70;91.80
1988;DHT22;12775;46.994;15.498;2023-02-01T00:34:14;0.70;91.20
1988;DHT22;12775;46.994;15.498;2023-02-01T00:36:41;0.70;92.30
1988;DHT22;12775;46.994;15.498;2023-02-01T00:39:07;0.60;92.00
1988;DHT22;12775;46.994;15.498;2023-02-01T00:41:34;0.70;91.70
1988;DHT22;12775;46.994;15.498;2023-02-01T00:44:02;0.70;91.80
1988;DHT22;12775;46.994;15.498;2023-02-01T00:46:29;0.70;91.70
1988;DHT22;12775;46.994;15.498;2023-02-01T00:48:57;0.70;91.80
1988;DHT22;12775;46.994;15.498;2023-02-01T00:51:25;0.70;92.10
1988;DHT22;12775;46.994;15.498;2023-02-01T00:53:51;0.70;92.00
1988;DHT22;12775;46.994;15.498;2023-02-01T00:56:21;0.70;91.60
1988;DHT22;12775;46.994;15.498;2023-02-01T00:58:48;0.80;91.20
1988;DHT22;12775;46.994;15.498;2023-02-01T01:01:17;0.80;90.80
1988;DHT22;12775;46.994;15.498;2023-02-01T01:03:45;0.80;90.90
1988;DHT22;12775;46.994;15.498;2023-02-01T01:06:12;0.80;91.20
1988;DHT22;12775;46.994;15.498;2023-02-01T01:08:39;0.80;90.90
1988;DHT22;12775;46.994;15.498;2023-02-01T01:11:12;0.80;91.00
1988;DHT22;12775;46.994;15.498;2023-02-01T01:13:39;0.70;91.40
1988;DHT22;12775;46.994;15.498;2023-02-01T01:16:06;0.70;91.30
1988;DHT22;12775;46.994;15.498;2023-02-01T01:18:33;0.50;92.40
1988;DHT22;12775;46.994;15.498;2023-02-01T01:21:01;0.50;92.50
1988;DHT22;12775;46.994;15.498;2023-02-01T01:23:28;0.40;92.70
1988;DHT22;12775;46.994;15.498;2023-02-01T01:25:55;0.20;93.10
1988;DHT22;12775;46.994;15.498;2023-02-01T01:28:22;0.20;93.30
1988;DHT22;12775;46.994;15.498;2023-02-01T01:30:50;0.20;93.50
1988;DHT22;12775;46.994;15.498;2023-02-01T01:33:17;0.30;93.30
1988;DHT22;12775;46.994;15.498;2023-02-01T01:35:45;-0.30;94.30
1988;DHT22;12775;46.994;15.498;2023-02-01T01:38:13;-0.20;94.70
1988;DHT22;12775;46.994;15.498;2023-02-01T01:40:44;-0.10;94.10
1988;DHT22;12775;46.994;15.498;2023-02-01T01:43:13;-0.10;94.10
1988;DHT22;12775;46.994;15.498;2023-02-01T01:45:40;0.00;93.50
1988;DHT22;12775;46.994;15.498;2023-02-01T01:48:16;0.10;93.40
1988;DHT22;12775;46.994;15.498;2023-02-01T01:50:44;0.10;93.50
1988;DHT22;12775;46.994;15.498;2023-02-01T01:53:11;0.10;92.80
1988;DHT22;12775;46.994;15.498;2023-02-01T01:55:38;0.10;93.00
1988;DHT22;12775;46.994;15.498;2023-02-01T01:58:06;0.20;93.20
1988;DHT22;12775;46.994;15.498;2023-02-01T02:00:32;0.10;93.30
1988;DHT22;12775;46.994;15.498;2023-02-01T02:03:03;0.00;93.60
1988;DHT22;12775;46.994;15.498;2023-02-01T02:05:27;0.10;93.40
1988;DHT22;12775;46.994;15.498;2023-02-01T02:07:56;0.20;93.20
1988;DHT22;12775;46.994;15.498;2023-02-01T02:10:21;0.10;93.20
1988;DHT22;12775;46.994;15.498;2023-02-01T02:12:48;0.20;93.30
1988;DHT22;12775;46.994;15.498;2023-02-01T02:15:15;0.10;93.70
1988;DHT22;12775;46.994;15.498;2023-02-01T02:18:02;0.00;93.50
1988;DHT22;12775;46.994;15.498;2023-02-01T02:21:04;0.10;93.30
1988;DHT22;12775;46.994;15.498;2023-02-01T02:23:42;0.10;93.30
1988;DHT22;12775;46.994;15.498;2023-02-01T02:26:24;0.10;92.80
1988;DHT22;12775;46.994;15.498;2023-02-01T02:34:25;-0.30;93.60
1988;DHT22;12775;46.994;15.498;2023-02-01T02:42:29;-0.50;94.20
1988;DHT22;12775;46.994;15.498;2023-02-01T02:45:04;-0.40;94.20
1988;DHT22;12775;46.994;15.498;2023-02-01T02:47:42;-0.30;93.60
1988;DHT22;12775;46.994;15.498;2023-02-01T02:50:15;-0.30;93.20
1988;DHT22;12775;46.994;15.498;2023-02-01T02:52:48;-0.40;93.10
1988;DHT22;12775;46.994;15.498;2023-02-01T02:55:19;-0.50;94.10
1988;DHT22;12775;46.994;15.498;2023-02-01T02:57:47;-0.40;93.50
1988;DHT22;12775;46.994;15.498;2023-02-01T03:00:21;-0.40;93.60
1988;DHT22;12775;46.994;15.498;2023-02-01T03:02:53;-0.30;93.80
1988;DHT22;12775;46.994;15.498;2023-02-01T03:05:31;-0.30;94.00
1988;DHT22;12775;46.994;15.498;2023-02-01T03:07:57;-0.40;93.90
1988;DHT22;12775;46.994;15.498;2023-02-01T03:10:29;-0.40;94.00
1988;DHT22;12775;46.994;15.498;2023-02-01T03:12:53;-0.30;93.10
1988;DHT22;12775;46.994;15.498;2023-02-01T03:15:24;-1.00;95.30
1988;DHT22;12775;46.994;15.498;2023-02-01T03:17:50;-1.00;95.30
1988;DHT22;12775;46.994;15.498;2023-02-01T03:20:17;-0.90;95.10
1988;DHT22;12775;46.994;15.498;2023-02-01T03:22:44;-1.10;96.10
1988;DHT22;12775;46.994;15.498;2023-02-01T03:25:14;-1.40;97.90
1988;DHT22;12775;46.994;15.498;2023-02-01T03:27:51;-1.20;97.90
1988;DHT22;12775;46.994;15.498;2023-02-01T03:30:20;-1.20;97.80
1988;DHT22;12775;46.994;15.498;2023-02-01T03:32:47;-1.10;97.80
1988;DHT22;12775;46.994;15.498;2023-02-01T03:35:20;-1.10;97.40
1988;DHT22;12775;46.994;15.498;2023-02-01T03:37:47;-1.10;97.80
1988;DHT22;12775;46.994;15.498;2023-02-01T03:40:14;-1.10;97.80
1988;DHT22;12775;46.994;15.498;2023-02-01T03:42:42;-1.00;97.20
1988;DHT22;12775;46.994;15.498;2023-02-01T03:45:24;-1.00;97.20
1988;DHT22;12775;46.994;15.498;2023-02-01T03:47:51;-0.80;96.90
1988;DHT22;12775;46.994;15.498;2023-02-01T03:50:18;-0.80;96.70
1988;DHT22;12775;46.994;15.498;2023-02-01T03:52:45;-0.80;96.70
1988;DHT22;12775;46.994;15.498;2023-02-01T03:55:12;-0.70;96.10
1988;DHT22;12775;46.994;15.498;2023-02-01T03:57:41;-0.70;95.80
1988;DHT22;12775;46.994;15.498;2023-02-01T04:00:18;-0.70;94.90
1988;DHT22;12775;46.994;15.498;2023-02-01T04:02:44;-0.70;94.60
1988;DHT22;12775;46.994;15.498;2023-02-01T04:05:11;-0.60;95.00
1988;DHT22;12775;46.994;15.498;2023-02-01T04:07:38;-0.60;95.20
1988;DHT22;12775;46.994;15.498;2023-02-01T04:10:06;-0.60;95.20
1988;DHT22;12775;46.994;15.498;2023-02-01T04:12:34;-0.50;95.30
1988;DHT22;12775;46.994;15.498;2023-02-01T04:15:01;-0.50;94.90
1988;DHT22;12775;46.994;15.498;2023-02-01T04:17:29;-0.40;94.50
1988;DHT22;12775;46.994;15.498;2023-02-01T04:19:56;-0.40;94.50
1988;DHT22;12775;46.994;15.498;2023-02-01T04:22:24;-0.40;93.90
1988;DHT22;12775;46.994;15.498;2023-02-01T04:24:51;-0.30;94.10
1988;DHT22;12775;46.994;15.498;2023-02-01T04:27:18;-0.30;94.10
1988;DHT22;12775;46.994;15.498;2023-02-01T04:29:46;-0.40;94.10
1988;DHT22;12775;46.994;15.498;2023-02-01T04:32:14;-0.30;94.20
1988;DHT22;12775;46.994;15.498;2023-02-01T04:34:41;-0.30;93.90
1988;DHT22;12775;46.994;15.498;2023-02-01T04:37:09;-0.40;94.30
1988;DHT22;12775;46.994;15.498;2023-02-01T04:39:36;-0.50;94.30
1988;DHT22;12775;46.994;15.498;2023-02-01T04:42:03;-0.50;94.10
1988;DHT22;12775;46.994;15.498;2023-02-01T04:44:31;-0.40;94.20
1988;DHT22;12775;46.994;15.498;2023-02-01T04:46:58;-0.40;93.30
1988;DHT22;12775;46.994;15.498;2023-02-01T04:49:25;-0.70;94.20
1988;DHT22;12775;46.994;15.498;2023-02-01T04:51:53;-0.60;94.50
1988;DHT22;12775;46.994;15.498;2023-02-01T04:54:20;-0.60;94.50
1988;DHT22;12775;46.994;15.498;2023-02-01T04:56:48;-0.70;94.60
1988;DHT22;12775;46.994;15.498;2023-02-01T04:59:15;-0.70;93.90
1988;DHT22;12775;46.994;15.498;2023-02-01T05:01:42;-0.70;94.00
1988;DHT22;12775;46.994;15.498;2023-02-01T05:04:10;-0.90;94.90
1988;DHT22;12775;46.994;15.498;2023-02-01T05:06:37;-1.00;95.30
1988;DHT22;12775;46.994;15.498;2023-02-01T05:09:04;-0.90;95.30
1988;DHT22;12775;46.994;15.498;2023-02-01T05:11:32;-0.90;95.30
1988;DHT22;12775;46.994;15.498;2023-02-01T05:14:05;-0.80;94.90
1988;DHT22;12775;46.994;15.498;2023-02-01T05:16:32;-0.90;95.50
1988;DHT22;12775;46.994;15.498;2023-02-01T05:19:00;-0.90;95.40
1988;DHT22;12775;46.994;15.498;2023-02-01T05:21:27;-0.90;95.30
1988;DHT22;12775;46.994;15.498;2023-02-01T05:23:54;-0.90;95.60
1988;DHT22;12775;46.994;15.498;2023-02-01T05:26:27;-0.80;94.60
1988;DHT22;12775;46.994;15.498;2023-02-01T05:28:55;-0.80;94.80
1988;DHT22;12775;46.994;15.498;2023-02-01T05:31:22;-0.80;94.30
1988;DHT22;12775;46.994;15.498;2023-02-01T05:33:50;-0.80;94.20
1988;DHT22;12775;46.994;15.498;2023-02-01T05:36:18;-0.80;94.30
1988;DHT22;12775;46.994;15.498;2023-02-01T05:38:45;-0.80;94.50
1988;DHT22;12775;46.994;15.498;2023-02-01T05:41:12;-0.80;94.80
1988;DHT22;12775;46.994;15.498;2023-02-01T05:43:40;-0.80;94.70
1988;DHT22;12775;46.994;15.498;2023-02-01T05:46:07;-0.80;94.90
1988;DHT22;12775;46.994;15.498;2023-02-01T05:48:34;-0.80;94.60
1988;DHT22;12775;46.994;15.498;2023-02-01T05:51:02;-0.70;94.50
1988;DHT22;12775;46.994;15.498;2023-02-01T05:53:29;-0.70;93.90
1988;DHT22;12775;46.994;15.498;2023-02-01T05:55:57;-0.70;94.00
1988;DHT22;12775;46.994;15.498;2023-02-01T05:58:24;-0.80;94.60
1988;DHT22;12775;46.994;15.498;2023-02-01T06:00:51;-0.80;94.70
1988;DHT22;12775;46.994;15.498;2023-02-01T06:03:20;-0.80;94.50
1988;DHT22;12775;46.994;15.498;2023-02-01T06:05:47;-1.10;95.00
1988;DHT22;12775;46.994;15.498;2023-02-01T06:08:14;-1.20;95.90
1988;DHT22;12775;46.994;15.498;2023-02-01T06:10:41;-1.20;95.90
1988;DHT22;12775;46.994;15.498;2023-02-01T06:13:07;-1.10;95.20
1988;DHT22;12775;46.994;15.498;2023-02-01T06:15:34;-1.10;95.00
1988;DHT22;12775;46.994;15.498;2023-02-01T06:18:01;-1.10;94.50
1988;DHT22;12775;46.994;15.498;2023-02-01T06:20:28;-1.10;95.10
1988;DHT22;12775;46.994;15.498;2023-02-01T06:22:55;-1.10;94.90
1988;DHT22;12775;46.994;15.498;2023-02-01T06:25:23;-1.00;95.10
1988;DHT22;12775;46.994;15.498;2023-02-01T06:27:50;-1.00;95.00
1988;DHT22;12775;46.994;15.498;2023-02-01T06:30:17;-1.10;95.00
1988;DHT22;12775;46.994;15.498;2023-02-01T06:32:49;-1.10;95.10
1988;DHT22;12775;46.994;15.498;2023-02-01T06:35:12;-1.10;95.00
1988;DHT22;12775;46.994;15.498;2023-02-01T06:37:40;-1.10;94.80
1988;DHT22;12775;46.994;15.498;2023-02-01T06:40:08;-1.30;95.60
1988;DHT22;12775;46.994;15.498;2023-02-01T06:42:35;-1.20;95.40
1988;DHT22;12775;46.994;15.498;2023-02-01T06:45:03;-1.20;95.20
1988;DHT22;12775;46.994;15.498;2023-02-01T06:47:30;-1.20;95.20
1988;DHT22;12775;46.994;15.498;2023-02-01T06:49:56;-1.20;95.20
1988;DHT22;12775;46.994;15.498;2023-02-01T06:52:23;-1.10;94.90
1988;DHT22;12775;46.994;15.498;2023-02-01T06:54:51;-1.30;95.30
1988;DHT22;12775;46.994;15.498;2023-02-01T06:57:18;-1.30;96.00
1988;DHT22;12775;46.994;15.498;2023-02-01T06:59:46;-1.30;95.80
1988;DHT22;12775;46.994;15.498;2023-02-01T07:02:13;-1.20;95.80
1988;DHT22;12775;46.994;15.498;2023-02-01T07:04:40;-1.20;96.20
1988;DHT22;12775;46.994;15.498;2023-02-01T07:07:07;-1.30;96.20
1988;DHT22;12775;46.994;15.498;2023-02-01T07:09:33;-1.20;96.30
1988;DHT22;12775;46.994;15.498;2023-02-01T07:12:01;-1.10;97.20
1988;DHT22;12775;46.994;15.498;2023-02-01T07:14:28;-1.10;98.50
1988;DHT22;12775;46.994;15.498;2023-02-01T07:16:56;-1.00;98.70
1988;DHT22;12775;46.994;15.498;2023-02-01T07:19:23;-1.00;98.90
1988;DHT22;12775;46.994;15.498;2023-02-01T07:21:50;-0.80;99.30
1988;DHT22;12775;46.994;15.498;2023-02-01T07:24:18;-0.70;99.60
1988;DHT22;12775;46.994;15.498;2023-02-01T07:26:46;-0.70;99.90
1988;DHT22;12775;46.994;15.498;2023-02-01T07:29:13;-0.60;99.90
1988;DHT22;12775;46.994;15.498;2023-02-01T07:31:41;-0.40;99.90
1988;DHT22;12775;46.994;15.498;2023-02-01T07:34:09;-0.30;99.90
1988;DHT22;12775;46.994;15.498;2023-02-01T07:36:36;-0.20;99.90
1988;DHT22;12775;46.994;15.498;2023-02-01T07:39:04;0.00;99.90
1988;DHT22;12775;46.994;15.498;2023-02-01T07:41:31;0.10;99.90
1988;DHT22;12775;46.994;15.498;2023-02-01T07:43:59;0.20;99.90
1988;DHT22;12775;46.994;15.498;2023-02-01T07:46:27;0.30;99.90
1988;DHT22;12775;46.994;15.498;2023-02-01T07:48:55;0.50;99.90
1988;DHT22;12775;46.994;15.498;2023-02-01T07:51:23;0.60;99.90
1988;DHT22;12775;46.994;15.498;2023-02-01T07:53:51;0.60;99.90
1988;DHT22;12775;46.994;15.498;2023-02-01T07:56:19;0.70;99.90
1988;DHT22;12775;46.994;15.498;2023-02-01T07:58:49;0.80;99.90
1988;DHT22;12775;46.994;15.498;2023-02-01T08:01:16;0.70;99.90
1988;DHT22;12775;46.994;15.498;2023-02-01T08:03:47;0.90;99.90
1988;DHT22;12775;46.994;15.498;2023-02-01T08:06:13;1.00;99.90
1988;DHT22;12775;46.994;15.498;2023-02-01T08:08:40;1.10;99.90
1988;DHT22;12775;46.994;15.498;2023-02-01T08:11:07;1.30;99.90
1988;DHT22;12775;46.994;15.498;2023-02-01T08:13:34;1.60;99.90
1988;DHT22;12775;46.994;15.498;2023-02-01T08:16:02;1.70;99.70
1988;DHT22;12775;46.994;15.498;2023-02-01T08:18:29;1.70;99.30
1988;DHT22;12775;46.994;15.498;2023-02-01T08:20:56;1.90;98.80
1988;DHT22;12775;46.994;15.498;2023-02-01T08:23:23;2.00;98.60
1988;DHT22;12775;46.994;15.498;2023-02-01T08:25:51;2.10;99.10
1988;DHT22;12775;46.994;15.498;2023-02-01T08:28:18;2.30;99.30
1988;DHT22;12775;46.994;15.498;2023-02-01T08:30:45;2.30;99.30
1988;DHT22;12775;46.994;15.498;2023-02-01T08:33:12;2.40;99.40
1988;DHT22;12775;46.994;15.498;2023-02-01T08:35:39;2.70;98.70
1988;DHT22;12775;46.994;15.498;2023-02-01T08:38:07;2.80;97.20
1988;DHT22;12775;46.994;15.498;2023-02-01T08:40:34;2.90;96.70
1988;DHT22;12775;46.994;15.498;2023-02-01T08:43:01;3.10;97.00
1988;DHT22;12775;46.994;15.498;2023-02-01T08:45:30;3.20;97.30
1988;DHT22;12775;46.994;15.498;2023-02-01T08:47:57;3.30;97.30
1988;DHT22;12775;46.994;15.498;2023-02-01T08:50:25;3.40;97.20
1988;DHT22;12775;46.994;15.498;2023-02-01T08:52:52;3.50;96.50
1988;DHT22;12775;46.994;15.498;2023-02-01T08:55:20;3.50;96.20
1988;DHT22;12775;46.994;15.498;2023-02-01T08:57:47;3.50;96.20
1988;DHT22;12775;46.994;15.498;2023-02-01T09:00:15;3.60;96.70
1988;DHT22;12775;46.994;15.498;2023-02-01T09:02:42;3.80;97.20
1988;DHT22;12775;46.994;15.498;2023-02-01T09:05:09;3.90;96.80
1988;DHT22;12775;46.994;15.498;2023-02-01T09:07:36;4.00;95.60
1988;DHT22;12775;46.994;15.498;2023-02-01T09:10:05;4.10;95.40
1988;DHT22;12775;46.994;15.498;2023-02-01T09:12:32;4.10;95.10
1988;DHT22;12775;46.994;15.498;2023-02-01T09:14:58;4.20;95.40
1988;DHT22;12775;46.994;15.498;2023-02-01T09:17:26;4.50;94.80
1988;DHT22;12775;46.994;15.498;2023-02-01T09:19:53;4.60;94.90
1988;DHT22;12775;46.994;15.498;2023-02-01T09:22:20;4.70;94.70
1988;DHT22;12775;46.994;15.498;2023-02-01T09:24:48;4.70;93.80
1988;DHT22;12775;46.994;15.498;2023-02-01T09:27:15;4.90;93.80
1988;DHT22;12775;46.994;15.498;2023-02-01T09:29:42;5.00;94.10
1988;DHT22;12775;46.994;15.498;2023-02-01T09:32:10;5.30;95.40
1988;DHT22;12775;46.994;15.498;2023-02-01T09:34:37;5.50;96.30
1988;DHT22;12775;46.994;15.498;2023-02-01T09:37:04;5.70;96.00
1988;DHT22;12775;46.994;15.498;2023-02-01T09:39:32;5.90;95.50
1988;DHT22;12775;46.994;15.498;2023-02-01T09:42:08;6.10;95.70
1988;DHT22;12775;46.994;15.498;2023-02-01T09:47:14;6.30;93.10
1988;DHT22;12775;46.994;15.498;2023-02-01T09:49:48;6.70;94.10
1988;DHT22;12775;46.994;15.498;2023-02-01T09:52:13;6.90;93.90
1988;DHT22;12775;46.994;15.498;2023-02-01T09:54:44;7.10;92.60
1988;DHT22;12775;46.994;15.498;2023-02-01T09:57:13;7.30;91.10
1988;DHT22;12775;46.994;15.498;2023-02-01T09:59:39;7.50;90.90
1988;DHT22;12775;46.994;15.498;2023-02-01T10:02:10;7.60;90.60
1988;DHT22;12775;46.994;15.498;2023-02-01T10:04:32;7.80;90.20
1988;DHT22;12775;46.994;15.498;2023-02-01T10:07:08;7.90;90.10
1988;DHT22;12775;46.994;15.498;2023-02-01T10:09:42;8.10;91.70
1988;DHT22;12775;46.994;15.498;2023-02-01T10:12:31;8.10;91.70
1988;DHT22;12775;46.994;15.498;2023-02-01T10:20:30;8.90;90.30
1988;DHT22;12775;46.994;15.498;2023-02-01T10:23:03;9.10;90.10
1988;DHT22;12775;46.994;15.498;2023-02-01T10:25:31;9.30;90.20
1988;DHT22;12775;46.994;15.498;2023-02-01T10:27:55;9.30;90.20
1988;DHT22;12775;46.994;15.498;2023-02-01T10:30:23;9.50;89.00
1988;DHT22;12775;46.994;15.498;2023-02-01T10:32:54;9.80;89.50
1988;DHT22;12775;46.994;15.498;2023-02-01T10:35:22;9.80;82.60
1988;DHT22;12775;46.994;15.498;2023-02-01T10:37:46;9.90;81.70
1988;DHT22;12775;46.994;15.498;2023-02-01T10:40:18;10.00;82.40
1988;DHT22;12775;46.994;15.498;2023-02-01T10:42:44;10.10;82.10
1988;DHT22;12775;46.994;15.498;2023-02-01T10:45:13;10.20;83.50
1988;DHT22;12775;46.994;15.498;2023-02-01T10:47:40;10.10;80.20
1988;DHT22;12775;46.994;15.498;2023-02-01T10:50:15;9.90;82.80
1988;DHT22;12775;46.994;15.498;2023-02-01T10:52:56;9.90;82.70
1988;DHT22;12775;46.994;15.498;2023-02-01T10:55:30;9.90;83.30
1988;DHT22;12775;46.994;15.498;2023-02-01T10:57:59;9.70;80.50
1988;DHT22;12775;46.994;15.498;2023-02-01T11:00:26;9.90;81.70
1988;DHT22;12775;46.994;15.498;2023-02-01T11:02:53;10.10;84.00
1988;DHT22;12775;46.994;15.498;2023-02-01T11:05:19;10.10;84.00
1988;DHT22;12775;46.994;15.498;2023-02-01T11:07:46;10.40;86.10
1988;DHT22;12775;46.994;15.498;2023-02-01T11:10:37;10.30;79.50
1988;DHT22;12775;46.994;15.498;2023-02-01T11:13:03;10.40;82.10
1988;DHT22;12775;46.994;15.498;2023-02-01T11:15:29;10.40;78.20
1988;DHT22;12775;46.994;15.498;2023-02-01T11:17:56;10.60;80.80
1988;DHT22;12775;46.994;15.498;2023-02-01T11:20:38;10.80;78.70
1988;DHT22;12775;46.994;15.498;2023-02-01T11:23:11;11.00;78.40
1988;DHT22;12775;46.994;15.498;2023-02-01T11:25:33;10.90;76.10
1988;DHT22;12775;46.994;15.498;2023-02-01T11:27:59;10.90;76.00
1988;DHT22;12775;46.994;15.498;2023-02-01T11:30:32;11.10;75.10
1988;DHT22;12775;46.994;15.498;2023-02-01T11:32:58;11.00;74.90
1988;DHT22;12775;46.994;15.498;2023-02-01T11:35:26;10.80;74.30
1988;DHT22;12775;46.994;15.498;2023-02-01T11:37:57;11.00;74.60
1988;DHT22;12775;46.994;15.498;2023-02-01T11:40:25;11.00;75.00
1988;DHT22;12775;46.994;15.498;2023-02-01T11:42:54;11.00;76.00
1988;DHT22;12775;46.994;15.498;2023-02-01T11:45:25;11.00;74.50
1988;DHT22;12775;46.994;15.498;2023-02-01T11:47:52;11.10;74.90
1988;DHT22;12775;46.994;15.498;2023-02-01T11:50:22;11.20;74.40
1988;DHT22;12775;46.994;15.498;2023-02-01T11:53:03;11.30;74.60
1988;DHT22;12775;46.994;15.498;2023-02-01T11:55:30;11.30;74.50
1988;DHT22;12775;46.994;15.498;2023-02-01T11:58:19;11.30;72.10
1988;DHT22;12775;46.994;15.498;2023-02-01T12:00:53;11.40;72.40
1988;DHT22;12775;46.994;15.498;2023-02-01T12:03:42;11.40;72.30
1988;DHT22;12775;46.994;15.498;2023-02-01T12:06:35;11.40;71.70
1988;DHT22;12775;46.994;15.498;2023-02-01T12:09:06;11.60;72.20
1988;DHT22;12775;46.994;15.498;2023-02-01T12:11:33;11.80;73.50
1988;DHT22;12775;46.994;15.498;2023-02-01T12:14:10;12.10;71.10
1988;DHT22;12775;46.994;15.498;2023-02-01T12:16:53;12.30;70.80
1988;DHT22;12775;46.994;15.498;2023-02-01T12:22:14;12.60;70.20
1988;DHT22;12775;46.994;15.498;2023-02-01T12:24:47;12.70;71.20
1988;DHT22;12775;46.994;15.498;2023-02-01T12:27:27;12.90;72.70
1988;DHT22;12775;46.994;15.498;2023-02-01T12:32:31;13.10;72.40
1988;DHT22;12775;46.994;15.498;2023-02-01T12:35:04;13.30;71.50
1988;DHT22;12775;46.994;15.498;2023-02-01T12:38:00;13.40;70.40
1988;DHT22;12775;46.994;15.498;2023-02-01T12:40:28;13.30;69.30
1988;DHT22;12775;46.994;15.498;2023-02-01T12:43:01;13.20;67.50
1988;DHT22;12775;46.994;15.498;2023-02-01T12:45:30;13.30;67.90
1988;DHT22;12775;46.994;15.498;2023-02-01T12:47:57;13.30;68.20
1988;DHT22;12775;46.994;15.498;2023-02-01T12:50:27;13.20;65.50
1988;DHT22;12775;46.994;15.498;2023-02-01T12:52:53;13.00;61.70
1988;DHT22;12775;46.994;15.498;2023-02-01T12:55:22;13.00;61.60
1988;DHT22;12775;46.994;15.498;2023-02-01T12:57:49;12.80;60.20
1988;DHT22;12775;46.994;15.498;2023-02-01T13:00:32;12.70;63.70
1988;DHT22;12775;46.994;15.498;2023-02-01T13:05:55;12.50;57.40
1988;DHT22;12775;46.994;15.498;2023-02-01T13:08:44;12.30;59.00
1988;DHT22;12775;46.994;15.498;2023-02-01T13:11:18;12.20;58.20
1988;DHT22;12775;46.994;15.498;2023-02-01T13:14:10;12.10;58.00
1988;DHT22;12775;46.994;15.498;2023-02-01T13:16:37;12.10;59.60
1988;DHT22;12775;46.994;15.498;2023-02-01T13:19:05;12.10;60.10
1988;DHT22;12775;46.994;15.498;2023-02-01T13:21:34;11.90;58.60
1988;DHT22;12775;46.994;15.498;2023-02-01T13:24:00;11.50;57.30
1988;DHT22;12775;46.994;15.498;2023-02-01T13:26:28;11.40;57.90
1988;DHT22;12775;46.994;15.498;2023-02-01T13:28:58;11.40;57.20
1988;DHT22;12775;46.994;15.498;2023-02-01T13:32:18;11.40;59.80
1988;DHT22;12775;46.994;15.498;2023-02-01T13:34:40;11.50;61.20
1988;DHT22;12775;46.994;15.498;2023-02-01T13:37:05;11.50;60.50
1988;DHT22;12775;46.994;15.498;2023-02-01T13:39:48;11.20;62.40
1988;DHT22;12775;46.994;15.498;2023-02-01T13:42:17;11.20;64.10
1988;DHT22;12775;46.994;15.498;2023-02-01T13:44:54;11.10;64.40
1988;DHT22;12775;46.994;15.498;2023-02-01T13:47:24;11.20;61.90
1988;DHT22;12775;46.994;15.498;2023-02-01T13:49:49;11.30;58.90
1988;DHT22;12775;46.994;15.498;2023-02-01T13:52:38;11.40;57.40
1988;DHT22;12775;46.994;15.498;2023-02-01T13:55:36;11.30;57.30
1988;DHT22;12775;46.994;15.498;2023-02-01T13:57:48;11.30;57.80
1988;DHT22;12775;46.994;15.498;2023-02-01T14:00:32;11.30;61.40
1988;DHT22;12775;46.994;15.498;2023-02-01T14:03:16;11.30;61.60
1988;DHT22;12775;46.994;15.498;2023-02-01T14:05:57;11.10;60.00
1988;DHT22;12775;46.994;15.498;2023-02-01T14:08:37;10.90;60.10
1988;DHT22;12775;46.994;15.498;2023-02-01T14:11:03;10.90;63.60
1988;DHT22;12775;46.994;15.498;2023-02-01T14:13:32;10.90;63.20
1988;DHT22;12775;46.994;15.498;2023-02-01T14:16:17;10.80;61.30
1988;DHT22;12775;46.994;15.498;2023-02-01T14:18:59;10.70;62.00
1988;DHT22;12775;46.994;15.498;2023-02-01T14:21:31;10.80;62.30
1988;DHT22;12775;46.994;15.498;2023-02-01T14:24:16;10.70;62.10
1988;DHT22;12775;46.994;15.498;2023-02-01T14:26:47;10.70;63.20
1988;DHT22;12775;46.994;15.498;2023-02-01T14:29:31;10.60;61.80
1988;DHT22;12775;46.994;15.498;2023-02-01T14:32:15;10.50;62.10
1988;DHT22;12775;46.994;15.498;2023-02-01T14:34:50;10.30;62.90
1988;DHT22;12775;46.994;15.498;2023-02-01T14:37:28;10.30;62.90
1988;DHT22;12775;46.994;15.498;2023-02-01T14:39:59;10.30;65.00
1988;DHT22;12775;46.994;15.498;2023-02-01T14:42:29;10.20;64.80
1988;DHT22;12775;46.994;15.498;2023-02-01T14:45:45;10.20;66.00
1988;DHT22;12775;46.994;15.498;2023-02-01T14:47:30;10.20;65.90
1988;DHT22;12775;46.994;15.498;2023-02-01T14:50:18;10.20;65.30
1988;DHT22;12775;46.994;15.498;2023-02-01T14:52:44;10.00;64.00
1988;DHT22;12775;46.994;15.498;2023-02-01T14:55:15;10.00;63.90
1988;DHT22;12775;46.994;15.498;2023-02-01T14:57:40;10.10;66.50
1988;DHT22;12775;46.994;15.498;2023-02-01T15:00:19;10.10;65.30
1988;DHT22;12775;46.994;15.498;2023-02-01T15:02:43;10.00;65.00
1988;DHT22;12775;46.994;15.498;2023-02-01T15:05:31;10.00;65.20
1988;DHT22;12775;46.994;15.498;2023-02-01T15:08:00;9.80;67.00
1988;DHT22;12775;46.994;15.498;2023-02-01T15:10:26;9.90;66.40
1988;DHT22;12775;46.994;15.498;2023-02-01T15:12:54;9.80;66.50
1988;DHT22;12775;46.994;15.498;2023-02-01T15:15:22;9.80;67.30
1988;DHT22;12775;46.994;15.498;2023-02-01T15:17:53;9.80;65.60
1988;DHT22;12775;46.994;15.498;2023-02-01T15:20:23;9.80;67.00
1988;DHT22;12775;46.994;15.498;2023-02-01T15:23:02;9.80;66.40
1988;DHT22;12775;46.994;15.498;2023-02-01T15:25:29;9.80;65.20
1988;DHT22;12775;46.994;15.498;2023-02-01T15:27:55;9.70;65.30
1988;DHT22;12775;46.994;15.498;2023-02-01T15:30:25;9.80;64.50
1988;DHT22;12775;46.994;15.498;2023-02-01T15:32:51;9.70;64.20
1988;DHT22;12775;46.994;15.498;2023-02-01T15:38:30;9.70;65.60
1988;DHT22;12775;46.994;15.498;2023-02-01T15:40:51;9.70;66.00
1988;DHT22;12775;46.994;15.498;2023-02-01T15:43:11;9.70;67.40
1988;DHT22;12775;46.994;15.498;2023-02-01T15:45:33;9.60;67.20
1988;DHT22;12775;46.994;15.498;2023-02-01T15:48:01;9.60;66.60
1988;DHT22;12775;46.994;15.498;2023-02-01T15:50:29;9.60;67.20
1988;DHT22;12775;46.994;15.498;2023-02-01T15:52:56;9.50;67.50
1988;DHT22;12775;46.994;15.498;2023-02-01T15:55:33;9.60;69.30
1988;DHT22;12775;46.994;15.498;2023-02-01T15:57:53;9.50;69.20
1988;DHT22;12775;46.994;15.498;2023-02-01T16:00:23;9.60;69.90
1988;DHT22;12775;46.994;15.498;2023-02-01T16:02:52;9.50;69.70
1988;DHT22;12775;46.994;15.498;2023-02-01T16:05:31;9.20;65.50
1988;DHT22;12775;46.994;15.498;2023-02-01T16:08:01;8.90;67.70
1988;DHT22;12775;46.994;15.498;2023-02-01T16:10:27;8.60;67.80
1988;DHT22;12775;46.994;15.498;2023-02-01T16:12:55;8.60;66.00
1988;DHT22;12775;46.994;15.498;2023-02-01T16:15:22;8.60;66.30
1988;DHT22;12775;46.994;15.498;2023-02-01T16:17:49;8.40;65.20
1988;DHT22;12775;46.994;15.498;2023-02-01T16:20:17;8.50;67.00
1988;DHT22;12775;46.994;15.498;2023-02-01T16:22:44;8.40;68.40
1988;DHT22;12775;46.994;15.498;2023-02-01T16:25:12;8.40;67.60